La Tontouta Nlle-Caledonie, New Caledonia
Current Conditions -  °F | °C
As of 3:30 PM on Saturday 20 Dec 2014 (Local Time) from NWWW Reporting Station
Broken Clouds Broken Clouds  
Wind Chill: 88°   Ceiling: 4200
Heat Index: 93°   Visibility: 6mi
Dew Point: 70°   Wind: 8mph
Humidity: 55%   Direction: 160°SSE
Pressure: 29.74"   Gusts: NA
Location:  22.02°S, 166.22°E
Report Text: NWWW 200430Z AUTO 16007KT 120V200 9999 BKN042 BKN049 BKN12031/21 Q1007
Loading
Personal Weather Stations






























Interactive Weather Map New forecast layout! Learn more

10-Day Weather Forecast

Advertisements
Track Severe Weather on mobile